createdAt,value
2022-09-09T00:00:34.804Z,3.00
2022-09-09T00:03:28.602Z,6.45
2022-09-09T00:06:06.327Z,5.80
2022-09-09T00:08:48.772Z,1.90
2022-09-09T00:11:31.276Z,4.95
2022-09-09T00:14:05.660Z,12.10
2022-09-09T00:16:41.662Z,1.90
2022-09-09T00:19:22.181Z,3.53
2022-09-09T00:21:59.437Z,2.45
2022-09-09T00:24:34.934Z,3.58
2022-09-09T00:27:07.358Z,2.45
2022-09-09T00:29:42.377Z,3.10
2022-09-09T00:32:17.154Z,6.07
2022-09-09T00:34:53.047Z,1.77
2022-09-09T00:37:23.246Z,5.07
2022-09-09T00:39:55.947Z,4.13
2022-09-09T00:42:28.491Z,3.67
2022-09-09T00:45:13.289Z,2.33
2022-09-09T00:47:48.279Z,1.77
2022-09-09T00:50:46.922Z,3.20
2022-09-09T00:53:32.292Z,4.15
2022-09-09T00:56:11.662Z,3.40
2022-09-09T00:58:40.836Z,1.98
2022-09-09T01:01:14.149Z,7.35
2022-09-09T01:03:51.469Z,3.42
2022-09-09T01:06:27.924Z,4.25
2022-09-09T01:09:19.361Z,3.45
2022-09-09T01:12:01.083Z,5.18
2022-09-09T01:14:42.135Z,2.33
2022-09-09T01:17:17.011Z,2.50
2022-09-09T01:20:04.404Z,3.47
2022-09-09T01:22:46.660Z,6.38
2022-09-09T01:25:53.126Z,5.38
2022-09-09T01:28:30.533Z,2.42
2022-09-09T01:31:08.760Z,2.40
2022-09-09T01:33:44.481Z,4.97
2022-09-09T01:36:20.370Z,3.13
2022-09-09T01:38:53.006Z,3.05
2022-09-09T01:41:22.782Z,3.95
2022-09-09T01:44:04.053Z,4.35
2022-09-09T01:46:35.869Z,6.18
2022-09-09T01:49:09.089Z,2.88
2022-09-09T01:51:41.123Z,5.15
2022-09-09T01:54:13.873Z,3.45
2022-09-09T01:56:49.348Z,2.28
2022-09-09T01:59:47.532Z,6.43
2022-09-09T02:02:21.990Z,5.78
2022-09-09T02:05:14.804Z,6.00
2022-09-09T02:07:49.275Z,3.25
2022-09-09T02:10:35.063Z,1.55
2022-09-09T02:13:20.009Z,4.97
2022-09-09T02:15:59.486Z,1.75
2022-09-09T02:18:33.249Z,3.63
2022-09-09T02:21:04.625Z,7.18
2022-09-09T02:23:35.958Z,3.95
2022-09-09T02:26:11.206Z,3.88
2022-09-09T02:28:43.188Z,4.82
2022-09-09T02:31:15.729Z,2.97
2022-09-09T02:33:48.887Z,2.03
2022-09-09T02:36:19.541Z,2.63
2022-09-09T02:38:54.018Z,3.03
2022-09-09T02:41:32.562Z,6.45
2022-09-09T02:44:01.756Z,4.90
2022-09-09T02:46:49.049Z,4.68
2022-09-09T02:49:26.950Z,2.05
2022-09-09T02:52:03.733Z,8.20
2022-09-09T02:54:34.995Z,3.00
2022-09-09T02:57:13.095Z,2.30
2022-09-09T02:59:45.279Z,5.88
2022-09-09T03:02:16.096Z,1.90
2022-09-09T03:04:52.719Z,3.92
2022-09-09T03:07:23.159Z,4.55
2022-09-09T03:09:56.092Z,5.55
2022-09-09T03:16:52.742Z,2.72
2022-09-09T03:19:23.711Z,8.65
2022-09-09T03:21:53.713Z,8.40
2022-09-09T03:24:23.746Z,8.02
2022-09-09T03:26:53.246Z,8.63
2022-09-09T03:29:22.709Z,5.20
2022-09-09T03:31:53.890Z,4.80
2022-09-09T03:34:25.084Z,9.70
2022-09-09T03:36:54.234Z,13.32
2022-09-09T03:39:23.482Z,9.48
2022-09-09T03:41:52.669Z,4.05
2022-09-09T03:44:21.742Z,7.63
2022-09-09T03:46:50.597Z,5.28
2022-09-09T03:49:21.239Z,7.55
2022-09-09T03:51:52.176Z,7.90
2022-09-09T03:54:21.180Z,18.05
2022-09-09T03:56:50.155Z,11.27
2022-09-09T03:59:19.531Z,11.65
2022-09-09T04:01:48.455Z,7.55
2022-09-09T04:04:17.510Z,8.68
2022-09-09T04:06:47.011Z,13.57
2022-09-09T04:09:17.460Z,9.30
2022-09-09T04:11:47.216Z,13.05
2022-09-09T04:14:18.120Z,11.93
2022-09-09T04:16:47.889Z,19.83
2022-09-09T04:19:17.973Z,10.52
2022-09-09T04:21:47.075Z,10.32
2022-09-09T04:24:18.048Z,9.32
2022-09-09T04:26:48.202Z,9.10
2022-09-09T04:29:17.629Z,5.63
2022-09-09T04:31:46.771Z,8.40
2022-09-09T04:34:16.050Z,10.05
2022-09-09T04:36:45.204Z,11.13
2022-09-09T04:39:14.086Z,9.68
2022-09-09T04:41:44.620Z,8.60
2022-09-09T04:44:13.704Z,11.13
2022-09-09T04:46:43.276Z,8.43
2022-09-09T04:49:15.383Z,8.45
2022-09-09T04:51:46.843Z,8.68
2022-09-09T04:54:16.469Z,5.65
2022-09-09T04:56:48.743Z,7.05
2022-09-09T04:59:17.916Z,11.50
2022-09-09T05:01:51.160Z,7.20
2022-09-09T05:04:21.128Z,12.13
2022-09-09T05:06:50.420Z,10.85
2022-09-09T05:09:19.368Z,15.40
2022-09-09T05:11:51.496Z,10.43
2022-09-09T05:14:32.190Z,6.55
2022-09-09T05:17:03.750Z,12.07
2022-09-09T05:19:33.394Z,9.30
2022-09-09T05:22:02.371Z,5.40
2022-09-09T05:24:39.240Z,7.10
2022-09-09T05:27:13.088Z,6.60
2022-09-09T05:29:45.639Z,4.57
2022-09-09T05:32:16.142Z,7.03
2022-09-09T05:34:48.811Z,9.57
2022-09-09T05:37:19.336Z,8.23
2022-09-09T05:39:48.839Z,9.82
2022-09-09T05:42:21.022Z,8.65
2022-09-09T05:44:50.225Z,7.07
2022-09-09T05:47:19.458Z,7.75
2022-09-09T05:49:48.629Z,8.00
2022-09-09T05:52:17.813Z,6.00
2022-09-09T05:54:46.723Z,2.67
2022-09-09T05:57:15.855Z,8.15
2022-09-09T05:59:47.665Z,4.65
2022-09-09T06:02:16.960Z,3.28
2022-09-09T06:04:46.052Z,4.53
2022-09-09T06:07:15.598Z,7.18
2022-09-09T06:09:44.862Z,3.20
2022-09-09T06:12:14.733Z,5.93
2022-09-09T06:14:46.370Z,3.88
2022-09-09T06:17:18.900Z,4.28
2022-09-09T06:19:49.943Z,3.83
2022-09-09T06:22:19.367Z,4.22
2022-09-09T06:24:48.897Z,4.80
2022-09-09T06:27:17.949Z,5.30
2022-09-09T06:29:47.920Z,5.55
2022-09-09T06:32:18.562Z,7.95
2022-09-09T06:34:50.275Z,5.93
2022-09-09T06:37:19.894Z,7.38
2022-09-09T06:39:51.854Z,4.88
2022-09-09T06:42:21.528Z,2.25
2022-09-09T06:45:19.863Z,6.25
2022-09-09T06:47:59.185Z,6.93
2022-09-09T06:50:28.537Z,3.60
2022-09-09T06:52:58.265Z,2.97
2022-09-09T06:55:27.172Z,4.53
2022-09-09T06:57:56.083Z,6.50
2022-09-09T07:00:26.643Z,3.65
2022-09-09T07:02:56.006Z,4.53
2022-09-09T07:05:27.112Z,6.60
2022-09-09T07:07:56.558Z,3.03
2022-09-09T07:10:25.980Z,2.40
2022-09-09T07:12:55.789Z,3.08
2022-09-09T07:15:27.645Z,3.90
2022-09-09T07:17:57.558Z,2.83
2022-09-09T07:20:28.339Z,4.22
2022-09-09T07:22:59.458Z,4.75
2022-09-09T07:25:30.986Z,2.95
2022-09-09T07:28:00.571Z,7.90
2022-09-09T07:30:29.914Z,3.95
2022-09-09T07:33:00.255Z,5.57
2022-09-09T07:35:31.421Z,5.13
2022-09-09T07:38:03.203Z,4.18
2022-09-09T07:40:32.823Z,6.68
2022-09-09T07:43:01.990Z,3.25
2022-09-09T07:45:33.719Z,4.80
2022-09-09T07:48:02.864Z,4.50
2022-09-09T07:50:34.417Z,5.20
2022-09-09T07:53:03.571Z,4.95
2022-09-09T07:55:32.629Z,3.75
2022-09-09T07:58:01.822Z,7.85
2022-09-09T08:00:30.817Z,5.43
2022-09-09T08:03:01.985Z,4.47
2022-09-09T08:05:33.376Z,6.45
2022-09-09T08:08:04.241Z,3.17
2022-09-09T08:10:34.037Z,5.60
2022-09-09T08:13:17.988Z,4.10
2022-09-09T08:15:52.382Z,3.40
2022-09-09T08:18:23.105Z,3.47
2022-09-09T08:20:54.497Z,3.00
2022-09-09T08:23:23.359Z,4.10
2022-09-09T08:25:52.455Z,5.90
2022-09-09T08:28:22.168Z,3.78
2022-09-09T08:30:54.301Z,5.15
2022-09-09T08:33:23.944Z,3.50
2022-09-09T08:35:54.756Z,3.15
2022-09-09T08:38:23.947Z,3.50
2022-09-09T08:41:02.150Z,3.33
2022-09-09T08:43:34.305Z,3.10
2022-09-09T08:46:11.806Z,3.00
2022-09-09T08:48:53.389Z,2.92
2022-09-09T08:51:27.936Z,3.22
2022-09-09T08:54:01.133Z,2.92
2022-09-09T08:56:32.648Z,3.72
2022-09-09T08:59:04.989Z,5.38
2022-09-09T09:02:02.586Z,3.60
2022-09-09T09:05:04.427Z,3.75
2022-09-09T09:07:49.082Z,4.55
2022-09-09T09:10:42.150Z,4.18
2022-09-09T09:13:22.099Z,4.07
2022-09-09T09:16:00.752Z,2.67
2022-09-09T09:18:35.072Z,3.22
2022-09-09T09:21:12.517Z,4.00
2022-09-09T09:23:53.645Z,2.90
2022-09-09T09:26:24.295Z,4.95
2022-09-09T09:28:55.024Z,4.30
2022-09-09T09:31:26.361Z,3.08
2022-09-09T09:33:57.607Z,3.58
2022-09-09T09:36:39.921Z,6.30
2022-09-09T09:42:11.878Z,4.18
2022-09-09T09:44:40.964Z,4.22
2022-09-09T09:47:17.050Z,7.55
2022-09-09T09:49:56.384Z,3.75
2022-09-09T09:52:29.414Z,3.83
2022-09-09T09:55:07.753Z,4.57
2022-09-09T09:57:39.175Z,3.83
2022-09-09T10:00:17.881Z,4.88
2022-09-09T10:02:54.315Z,3.97
2022-09-09T10:05:33.791Z,4.00
2022-09-09T10:08:14.624Z,9.32
2022-09-09T10:10:57.787Z,10.23
2022-09-09T10:13:33.495Z,5.00
2022-09-09T10:16:15.871Z,5.22
2022-09-09T10:19:02.041Z,10.20
2022-09-09T10:21:44.299Z,6.22
2022-09-09T10:24:31.498Z,6.32
2022-09-09T10:27:12.896Z,6.00
2022-09-09T10:30:02.145Z,5.38
2022-09-09T10:32:42.831Z,4.72
2022-09-09T10:35:34.376Z,5.60
2022-09-09T10:38:19.479Z,6.85
2022-09-09T10:41:12.193Z,8.43
2022-09-09T10:44:15.492Z,4.93
2022-09-09T10:47:01.725Z,5.10
2022-09-09T10:49:53.513Z,6.82
2022-09-09T10:52:29.006Z,7.50
2022-09-09T10:55:02.458Z,5.80
2022-09-09T11:00:17.541Z,6.72
2022-09-09T11:02:46.675Z,9.45
2022-09-09T11:05:21.177Z,5.30
2022-09-09T11:07:57.130Z,7.05
2022-09-09T11:10:31.448Z,5.35
2022-09-09T11:13:05.444Z,5.53
2022-09-09T11:15:44.425Z,5.20
2022-09-09T11:18:19.428Z,6.40
2022-09-09T11:20:49.723Z,7.40
2022-09-09T11:23:23.055Z,5.10
2022-09-09T11:25:58.075Z,7.07
2022-09-09T11:28:42.190Z,8.20
2022-09-09T11:31:31.183Z,7.20
2022-09-09T11:34:15.218Z,9.38
2022-09-09T11:37:11.017Z,6.50
2022-09-09T11:39:58.256Z,7.10
2022-09-09T11:42:27.845Z,5.30
2022-09-09T11:44:57.826Z,7.20
2022-09-09T11:47:31.326Z,6.50
2022-09-09T11:50:13.373Z,6.43
2022-09-09T11:52:46.874Z,7.78
2022-09-09T11:55:29.087Z,5.22
2022-09-09T11:58:01.743Z,8.05
2022-09-09T12:00:36.765Z,7.85
2022-09-09T12:03:10.057Z,8.60
2022-09-09T12:05:41.799Z,5.60
2022-09-09T12:08:14.452Z,7.57
2022-09-09T12:10:43.705Z,6.57
2022-09-09T12:13:20.367Z,8.10
2022-09-09T12:15:51.559Z,6.43
2022-09-09T12:18:27.394Z,6.68
2022-09-09T12:21:05.618Z,7.13
2022-09-09T12:23:44.703Z,6.47
2022-09-09T12:26:30.193Z,6.80
2022-09-09T12:29:08.939Z,8.50
2022-09-09T12:31:45.853Z,7.45
2022-09-09T12:34:21.771Z,6.00
2022-09-09T12:36:57.919Z,7.30
2022-09-09T12:39:37.030Z,7.53
2022-09-09T12:42:06.709Z,7.03
2022-09-09T12:44:35.517Z,7.35
2022-09-09T12:47:06.175Z,9.75
2022-09-09T12:49:42.560Z,8.43
2022-09-09T12:52:19.099Z,9.35
2022-09-09T12:54:52.604Z,9.05
2022-09-09T12:57:22.117Z,10.75
2022-09-09T12:59:51.455Z,11.23
2022-09-09T13:02:23.537Z,7.28
2022-09-09T13:04:55.378Z,9.70
2022-09-09T13:07:25.865Z,8.07
2022-09-09T13:09:55.043Z,10.15
2022-09-09T13:12:25.981Z,9.15
2022-09-09T13:14:58.403Z,9.40
2022-09-09T13:17:30.015Z,8.77
2022-09-09T13:25:26.586Z,10.02
2022-09-09T13:27:59.269Z,14.20
2022-09-09T13:30:31.193Z,8.68
2022-09-09T13:33:05.699Z,10.73
2022-09-09T13:35:35.414Z,11.98
2022-09-09T13:38:11.531Z,10.48
2022-09-09T13:40:41.895Z,14.60
2022-09-09T13:43:25.694Z,11.52
2022-09-09T13:46:00.256Z,11.70
2022-09-09T13:48:31.049Z,10.00
2022-09-09T13:51:03.209Z,10.40
2022-09-09T13:53:32.559Z,10.55
2022-09-09T13:56:03.693Z,8.50
2022-09-09T13:58:32.967Z,11.95
2022-09-09T14:01:02.355Z,11.85
2022-09-09T14:03:31.251Z,13.82
2022-09-09T14:06:00.849Z,20.00
2022-09-09T14:08:38.060Z,16.88
2022-09-09T14:11:13.426Z,13.07
2022-09-09T14:13:42.519Z,10.60
2022-09-09T14:16:11.812Z,16.55
2022-09-09T14:18:41.737Z,12.50
2022-09-09T14:21:10.929Z,11.15
2022-09-09T14:23:40.389Z,9.45
2022-09-09T14:26:12.466Z,10.38
2022-09-09T14:28:54.847Z,11.27
2022-09-09T14:31:26.064Z,9.27
2022-09-09T14:33:55.863Z,10.85
2022-09-09T14:36:25.423Z,13.57
2022-09-09T14:38:54.310Z,15.07
2022-09-09T14:41:24.950Z,15.57
2022-09-09T14:43:54.909Z,16.98
2022-09-09T14:46:24.440Z,14.43
2022-09-09T14:51:25.676Z,13.88
2022-09-09T14:53:56.300Z,12.82
2022-09-09T14:56:29.339Z,13.70
2022-09-09T14:59:01.732Z,12.00
2022-09-09T15:01:32.826Z,13.65
2022-09-09T15:04:03.638Z,13.70
2022-09-09T15:06:35.626Z,19.13
2022-09-09T15:09:04.926Z,14.98
2022-09-09T15:11:39.170Z,14.85
2022-09-09T15:14:09.352Z,14.82
2022-09-09T15:16:41.249Z,13.27
2022-09-09T15:19:10.934Z,16.30
2022-09-09T15:21:40.413Z,14.23
2022-09-09T15:24:09.561Z,16.63
2022-09-09T15:26:40.744Z,18.77
2022-09-09T15:29:10.150Z,13.82
2022-09-09T15:31:39.860Z,19.17
2022-09-09T15:34:09.714Z,15.00
2022-09-09T15:36:40.276Z,15.98
2022-09-09T15:39:13.512Z,16.52
2022-09-09T15:41:44.611Z,18.65
2022-09-09T15:44:14.196Z,18.77
2022-09-09T15:46:45.570Z,19.02
2022-09-09T15:49:18.326Z,19.38
2022-09-09T15:51:49.266Z,19.27
2022-09-09T15:54:21.798Z,17.58
2022-09-09T15:56:55.907Z,19.92
2022-09-09T15:59:25.513Z,20.17
2022-09-09T16:01:55.552Z,16.83
2022-09-09T16:04:26.051Z,18.60
2022-09-09T16:06:56.805Z,18.90
2022-09-09T16:09:25.828Z,17.90
2022-09-09T16:11:58.052Z,24.50
2022-09-09T16:14:27.927Z,20.10
2022-09-09T16:16:59.595Z,21.85
2022-09-09T16:19:28.876Z,23.05
2022-09-09T16:21:59.258Z,23.55
2022-09-09T16:24:28.349Z,23.60
2022-09-09T16:26:58.892Z,29.58
2022-09-09T16:29:28.488Z,22.55
2022-09-09T16:32:04.016Z,24.00
2022-09-09T16:34:34.482Z,30.67
2022-09-09T16:37:04.258Z,26.33
2022-09-09T16:39:33.601Z,27.70
2022-09-09T16:42:04.241Z,22.70
2022-09-09T16:44:33.675Z,24.13
2022-09-09T16:47:02.501Z,28.13
2022-09-09T16:49:32.062Z,22.25
2022-09-09T16:52:01.964Z,22.83
2022-09-09T16:54:31.266Z,22.13
2022-09-09T16:57:01.101Z,20.35
2022-09-09T16:59:32.729Z,24.55
2022-09-09T17:02:02.005Z,23.08
2022-09-09T17:04:31.960Z,25.83
2022-09-09T17:07:01.868Z,33.45
2022-09-09T17:09:32.355Z,24.50
2022-09-09T17:12:03.229Z,22.00
2022-09-09T17:14:33.888Z,20.13
2022-09-09T17:17:24.677Z,25.70
2022-09-09T17:19:53.416Z,20.95
2022-09-09T17:22:22.867Z,23.67
2022-09-09T17:24:52.009Z,26.23
2022-09-09T17:27:20.996Z,24.17
2022-09-09T17:29:52.294Z,24.80
2022-09-09T17:32:21.286Z,27.15
2022-09-09T17:34:50.398Z,28.00
2022-09-09T17:37:19.614Z,26.52
2022-09-09T17:39:48.630Z,28.73
2022-09-09T17:42:17.782Z,27.73
2022-09-09T17:44:46.979Z,27.15
2022-09-09T17:47:17.302Z,29.02
2022-09-09T17:49:47.513Z,27.80
2022-09-09T17:52:18.076Z,27.45
2022-09-09T17:54:47.182Z,30.52
2022-09-09T17:57:18.298Z,38.30
2022-09-09T17:59:47.551Z,31.95
2022-09-09T18:02:18.099Z,29.63
2022-09-09T18:04:47.406Z,31.50
2022-09-09T18:07:16.714Z,26.75
2022-09-09T18:09:46.788Z,31.25
2022-09-09T18:12:16.139Z,31.80
2022-09-09T18:14:45.239Z,34.50
2022-09-09T18:17:14.320Z,25.83
2022-09-09T18:19:44.806Z,27.42
2022-09-09T18:22:15.395Z,24.13
2022-09-09T18:24:48.193Z,35.88
2022-09-09T18:27:17.782Z,28.63
2022-09-09T18:29:46.770Z,31.85
2022-09-09T18:32:17.072Z,31.75
2022-09-09T18:34:51.566Z,31.77
2022-09-09T18:37:23.027Z,29.48
2022-09-09T18:39:53.132Z,29.23
2022-09-09T18:42:24.367Z,29.58
2022-09-09T18:44:55.217Z,27.92
2022-09-09T18:47:25.049Z,22.85
2022-09-09T18:49:56.276Z,29.20
2022-09-09T18:52:26.191Z,27.65
2022-09-09T18:54:55.372Z,25.88
2022-09-09T18:57:58.947Z,23.88
2022-09-09T19:00:29.367Z,23.48
2022-09-09T19:02:58.397Z,26.65
2022-09-09T19:05:28.731Z,26.55
2022-09-09T19:07:58.005Z,26.92
2022-09-09T19:10:27.073Z,29.75
2022-09-09T19:12:57.807Z,28.13
2022-09-09T19:15:28.472Z,23.42
2022-09-09T19:18:01.751Z,27.33
2022-09-09T19:20:35.966Z,24.45
2022-09-09T19:23:07.429Z,22.52
2022-09-09T19:25:38.474Z,25.83
2022-09-09T19:28:07.845Z,21.33
2022-09-09T19:30:37.639Z,23.95
2022-09-09T19:33:06.861Z,21.90
2022-09-09T19:35:37.617Z,25.13
2022-09-09T19:38:07.930Z,24.42
2022-09-09T19:40:37.500Z,24.23
2022-09-09T19:43:07.465Z,22.27
2022-09-09T19:45:36.923Z,24.50
2022-09-09T19:48:07.468Z,23.02
2022-09-09T19:50:38.791Z,28.45
2022-09-09T19:53:07.837Z,23.92
2022-09-09T19:55:40.764Z,19.45
2022-09-09T19:58:09.984Z,18.75
2022-09-09T20:00:39.819Z,22.00
2022-09-09T20:03:19.112Z,22.63
2022-09-09T20:05:51.259Z,24.65
2022-09-09T20:08:21.972Z,21.42
2022-09-09T20:10:53.588Z,20.25
2022-09-09T20:13:23.213Z,24.10
2022-09-09T20:16:00.445Z,18.08
2022-09-09T20:18:32.556Z,24.25
2022-09-09T20:21:05.681Z,19.25
2022-09-09T20:23:35.833Z,18.73
2022-09-09T20:26:07.082Z,20.00
2022-09-09T20:28:39.232Z,22.38
2022-09-09T20:31:10.111Z,24.55
2022-09-09T20:33:39.957Z,20.20
2022-09-09T20:36:15.148Z,21.65
2022-09-09T20:38:45.501Z,21.52
2022-09-09T20:41:18.552Z,21.10
2022-09-09T20:43:49.380Z,23.15
2022-09-09T20:46:19.093Z,23.63
2022-09-09T20:48:50.402Z,21.08
2022-09-09T20:51:21.162Z,28.95
2022-09-09T20:53:56.855Z,23.27
2022-09-09T20:58:55.724Z,25.08
2022-09-09T21:01:24.805Z,23.13
2022-09-09T21:03:53.671Z,24.92
2022-09-09T21:06:24.441Z,21.08
2022-09-09T21:08:53.661Z,27.65
2022-09-09T21:11:24.160Z,27.20
2022-09-09T21:13:53.324Z,25.58
2022-09-09T21:16:22.439Z,23.15
2022-09-09T21:18:51.858Z,25.77
2022-09-09T21:21:21.089Z,26.45
2022-09-09T21:23:52.008Z,23.20
2022-09-09T21:26:21.005Z,27.20
2022-09-09T21:28:50.298Z,22.48
2022-09-09T21:31:21.748Z,26.27
2022-09-09T21:33:54.919Z,23.52
2022-09-09T21:36:24.133Z,22.17
2022-09-09T21:38:54.582Z,22.08
2022-09-09T21:41:23.579Z,24.13
2022-09-09T21:43:54.621Z,27.33
2022-09-09T21:46:26.736Z,23.52
2022-09-09T21:48:57.233Z,19.73
2022-09-09T21:51:26.399Z,23.98
2022-09-09T21:54:01.769Z,23.85
2022-09-09T21:56:31.188Z,21.60
2022-09-09T21:59:04.026Z,24.45
2022-09-09T22:01:34.296Z,20.63
2022-09-09T22:04:03.780Z,24.67
2022-09-09T22:06:32.775Z,25.77
2022-09-09T22:09:03.563Z,21.70
2022-09-09T22:11:32.794Z,23.75
2022-09-09T22:14:03.328Z,21.33
2022-09-09T22:16:32.765Z,21.48
2022-09-09T22:19:02.445Z,20.33
2022-09-09T22:21:34.106Z,19.73
2022-09-09T22:24:38.405Z,21.50
2022-09-09T22:27:07.558Z,20.38
2022-09-09T22:29:36.764Z,22.10
2022-09-09T22:32:07.426Z,24.25
2022-09-09T22:34:36.383Z,20.52
2022-09-09T22:37:06.467Z,21.80
2022-09-09T22:39:36.898Z,22.23
2022-09-09T22:42:06.666Z,25.83
2022-09-09T22:44:35.766Z,22.02
2022-09-09T22:47:04.746Z,21.50
2022-09-09T22:49:33.919Z,18.75
2022-09-09T22:52:03.011Z,20.17
2022-09-09T22:54:31.946Z,19.90
2022-09-09T22:57:02.394Z,22.25
2022-09-09T22:59:31.479Z,25.65
2022-09-09T23:02:00.396Z,18.65
2022-09-09T23:04:29.580Z,22.27
2022-09-09T23:06:59.158Z,19.60
2022-09-09T23:09:28.626Z,21.48
2022-09-09T23:11:58.634Z,23.50
2022-09-09T23:14:28.935Z,18.00
2022-09-09T23:16:57.985Z,18.88
2022-09-09T23:19:28.862Z,23.35
2022-09-09T23:21:58.308Z,17.13
2022-09-09T23:24:27.924Z,20.63
2022-09-09T23:26:56.884Z,20.45
2022-09-09T23:29:25.923Z,19.88
2022-09-09T23:31:56.379Z,20.42
2022-09-09T23:34:25.344Z,15.43
2022-09-09T23:36:54.639Z,16.63
2022-09-09T23:39:23.856Z,16.15
2022-09-09T23:41:52.939Z,18.42
2022-09-09T23:44:22.048Z,19.20
2022-09-09T23:46:51.340Z,19.17
2022-09-09T23:49:21.779Z,19.55
2022-09-09T23:51:50.991Z,16.92
2022-09-09T23:54:20.003Z,17.50
2022-09-09T23:56:48.857Z,20.25
2022-09-09T23:59:18.241Z,14.82
